sensor_id;sensor_type;location;lat;lon;timestamp;P1;durP1;ratioP1;P2;durP2;ratioP2
28007;SDS011;15333;50.010;20.020;2023-04-25T00:01:21;55.88;;;34.30;;
28007;SDS011;15333;50.010;20.020;2023-04-25T00:04:22;54.47;;;34.85;;
28007;SDS011;15333;50.010;20.020;2023-04-25T00:07:24;54.90;;;34.78;;
28007;SDS011;15333;50.010;20.020;2023-04-25T00:10:26;50.35;;;34.55;;
28007;SDS011;15333;50.010;20.020;2023-04-25T00:13:27;48.28;;;31.33;;
28007;SDS011;15333;50.010;20.020;2023-04-25T00:16:28;46.80;;;31.20;;
28007;SDS011;15333;50.010;20.020;2023-04-25T00:19:31;40.08;;;26.52;;
28007;SDS011;15333;50.010;20.020;2023-04-25T00:22:33;32.97;;;21.08;;
28007;SDS011;15333;50.010;20.020;2023-04-25T00:25:35;23.65;;;16.05;;
28007;SDS011;15333;50.010;20.020;2023-04-25T00:28:36;19.27;;;13.65;;
28007;SDS011;15333;50.010;20.020;2023-04-25T00:31:37;17.13;;;11.70;;
28007;SDS011;15333;50.010;20.020;2023-04-25T00:34:38;11.00;;;7.93;;
28007;SDS011;15333;50.010;20.020;2023-04-25T00:37:39;8.05;;;6.57;;
28007;SDS011;15333;50.010;20.020;2023-04-25T00:40:40;8.40;;;5.88;;
28007;SDS011;15333;50.010;20.020;2023-04-25T00:43:44;7.25;;;5.72;;
28007;SDS011;15333;50.010;20.020;2023-04-25T00:46:49;7.07;;;5.38;;
28007;SDS011;15333;50.010;20.020;2023-04-25T00:49:50;6.82;;;5.30;;
28007;SDS011;15333;50.010;20.020;2023-04-25T00:52:52;6.53;;;4.57;;
28007;SDS011;15333;50.010;20.020;2023-04-25T00:55:58;7.60;;;4.45;;
28007;SDS011;15333;50.010;20.020;2023-04-25T00:59:02;6.28;;;4.32;;
28007;SDS011;15333;50.010;20.020;2023-04-25T01:02:03;6.68;;;4.72;;
28007;SDS011;15333;50.010;20.020;2023-04-25T01:05:05;6.38;;;4.95;;
28007;SDS011;15333;50.010;20.020;2023-04-25T01:08:06;6.35;;;4.68;;
28007;SDS011;15333;50.010;20.020;2023-04-25T01:11:07;7.45;;;4.68;;
28007;SDS011;15333;50.010;20.020;2023-04-25T01:14:08;8.75;;;5.43;;
28007;SDS011;15333;50.010;20.020;2023-04-25T01:17:09;9.95;;;5.95;;
28007;SDS011;15333;50.010;20.020;2023-04-25T01:20:11;11.18;;;8.25;;
28007;SDS011;15333;50.010;20.020;2023-04-25T01:23:14;14.23;;;9.80;;
28007;SDS011;15333;50.010;20.020;2023-04-25T01:26:15;14.35;;;10.02;;
28007;SDS011;15333;50.010;20.020;2023-04-25T01:29:17;16.90;;;11.30;;
28007;SDS011;15333;50.010;20.020;2023-04-25T01:32:21;15.93;;;11.50;;
28007;SDS011;15333;50.010;20.020;2023-04-25T01:35:24;21.48;;;14.23;;
28007;SDS011;15333;50.010;20.020;2023-04-25T01:38:27;24.25;;;17.55;;
28007;SDS011;15333;50.010;20.020;2023-04-25T01:41:29;26.55;;;16.95;;
28007;SDS011;15333;50.010;20.020;2023-04-25T01:44:30;30.00;;;17.30;;
28007;SDS011;15333;50.010;20.020;2023-04-25T01:47:31;24.98;;;16.00;;
28007;SDS011;15333;50.010;20.020;2023-04-25T01:50:32;23.20;;;15.75;;
28007;SDS011;15333;50.010;20.020;2023-04-25T01:53:33;23.92;;;14.63;;
28007;SDS011;15333;50.010;20.020;2023-04-25T01:56:37;21.27;;;15.32;;
28007;SDS011;15333;50.010;20.020;2023-04-25T01:59:41;21.63;;;15.30;;
28007;SDS011;15333;50.010;20.020;2023-04-25T02:03:11;25.27;;;15.77;;
28007;SDS011;15333;50.010;20.020;2023-04-25T02:06:12;28.75;;;16.80;;
28007;SDS011;15333;50.010;20.020;2023-04-25T02:09:17;26.90;;;16.80;;
28007;SDS011;15333;50.010;20.020;2023-04-25T02:12:27;29.15;;;18.52;;
28007;SDS011;15333;50.010;20.020;2023-04-25T02:15:37;28.60;;;18.55;;
28007;SDS011;15333;50.010;20.020;2023-04-25T02:18:48;30.80;;;17.77;;
28007;SDS011;15333;50.010;20.020;2023-04-25T02:21:53;26.23;;;16.50;;
28007;SDS011;15333;50.010;20.020;2023-04-25T02:24:54;26.75;;;16.05;;
28007;SDS011;15333;50.010;20.020;2023-04-25T02:27:56;25.98;;;15.68;;
28007;SDS011;15333;50.010;20.020;2023-04-25T02:30:57;22.08;;;14.77;;
28007;SDS011;15333;50.010;20.020;2023-04-25T02:33:58;21.75;;;15.40;;
28007;SDS011;15333;50.010;20.020;2023-04-25T02:36:59;21.25;;;14.90;;
28007;SDS011;15333;50.010;20.020;2023-04-25T02:40:00;26.27;;;17.05;;
28007;SDS011;15333;50.010;20.020;2023-04-25T02:43:02;28.63;;;17.17;;
28007;SDS011;15333;50.010;20.020;2023-04-25T02:46:02;26.10;;;15.57;;
28007;SDS011;15333;50.010;20.020;2023-04-25T02:49:04;25.58;;;15.43;;
28007;SDS011;15333;50.010;20.020;2023-04-25T02:52:05;25.38;;;15.38;;
28007;SDS011;15333;50.010;20.020;2023-04-25T02:55:07;22.40;;;14.70;;
28007;SDS011;15333;50.010;20.020;2023-04-25T02:58:09;22.08;;;15.95;;
28007;SDS011;15333;50.010;20.020;2023-04-25T03:01:36;22.13;;;14.57;;
28007;SDS011;15333;50.010;20.020;2023-04-25T03:04:37;18.15;;;12.13;;
28007;SDS011;15333;50.010;20.020;2023-04-25T03:07:38;18.48;;;12.52;;
28007;SDS011;15333;50.010;20.020;2023-04-25T03:10:39;21.40;;;14.00;;
28007;SDS011;15333;50.010;20.020;2023-04-25T03:13:43;18.48;;;12.25;;
28007;SDS011;15333;50.010;20.020;2023-04-25T03:16:45;20.25;;;13.68;;
28007;SDS011;15333;50.010;20.020;2023-04-25T03:19:46;23.65;;;14.02;;
28007;SDS011;15333;50.010;20.020;2023-04-25T03:22:47;23.38;;;16.52;;
28007;SDS011;15333;50.010;20.020;2023-04-25T03:25:48;26.70;;;18.42;;
28007;SDS011;15333;50.010;20.020;2023-04-25T03:28:49;37.10;;;22.65;;
28007;SDS011;15333;50.010;20.020;2023-04-25T03:31:50;41.38;;;25.65;;
28007;SDS011;15333;50.010;20.020;2023-04-25T03:34:51;44.75;;;25.88;;
28007;SDS011;15333;50.010;20.020;2023-04-25T03:37:52;39.95;;;24.38;;
28007;SDS011;15333;50.010;20.020;2023-04-25T03:40:59;41.58;;;25.48;;
28007;SDS011;15333;50.010;20.020;2023-04-25T03:44:19;35.50;;;22.63;;
28007;SDS011;15333;50.010;20.020;2023-04-25T03:47:20;37.65;;;25.10;;
28007;SDS011;15333;50.010;20.020;2023-04-25T03:50:24;36.70;;;23.45;;
28007;SDS011;15333;50.010;20.020;2023-04-25T03:53:25;31.02;;;18.70;;
28007;SDS011;15333;50.010;20.020;2023-04-25T03:56:45;38.50;;;21.67;;
28007;SDS011;15333;50.010;20.020;2023-04-25T03:59:53;31.08;;;20.38;;
28007;SDS011;15333;50.010;20.020;2023-04-25T04:02:54;32.42;;;20.00;;
28007;SDS011;15333;50.010;20.020;2023-04-25T04:05:55;28.60;;;20.70;;
28007;SDS011;15333;50.010;20.020;2023-04-25T04:08:56;34.38;;;21.92;;
28007;SDS011;15333;50.010;20.020;2023-04-25T04:11:58;34.95;;;22.42;;
28007;SDS011;15333;50.010;20.020;2023-04-25T04:14:59;38.58;;;24.20;;
28007;SDS011;15333;50.010;20.020;2023-04-25T04:18:01;38.05;;;24.48;;
28007;SDS011;15333;50.010;20.020;2023-04-25T04:21:03;37.03;;;25.08;;
28007;SDS011;15333;50.010;20.020;2023-04-25T04:24:07;36.78;;;25.52;;
28007;SDS011;15333;50.010;20.020;2023-04-25T04:27:21;35.97;;;24.67;;
28007;SDS011;15333;50.010;20.020;2023-04-25T04:30:36;34.53;;;22.08;;
28007;SDS011;15333;50.010;20.020;2023-04-25T04:33:41;35.85;;;23.70;;
28007;SDS011;15333;50.010;20.020;2023-04-25T04:36:42;37.72;;;25.70;;
28007;SDS011;15333;50.010;20.020;2023-04-25T04:39:43;34.55;;;23.48;;
28007;SDS011;15333;50.010;20.020;2023-04-25T04:43:01;35.53;;;23.48;;
28007;SDS011;15333;50.010;20.020;2023-04-25T04:46:04;35.63;;;23.67;;
28007;SDS011;15333;50.010;20.020;2023-04-25T04:49:30;35.67;;;25.63;;
28007;SDS011;15333;50.010;20.020;2023-04-25T04:52:54;32.38;;;22.45;;
28007;SDS011;15333;50.010;20.020;2023-04-25T04:56:16;37.25;;;25.02;;
28007;SDS011;15333;50.010;20.020;2023-04-25T04:59:30;43.47;;;27.65;;
28007;SDS011;15333;50.010;20.020;2023-04-25T05:02:34;42.08;;;29.85;;
28007;SDS011;15333;50.010;20.020;2023-04-25T05:05:54;46.50;;;31.00;;
28007;SDS011;15333;50.010;20.020;2023-04-25T05:09:27;48.10;;;31.80;;
28007;SDS011;15333;50.010;20.020;2023-04-25T05:12:46;43.92;;;30.27;;
28007;SDS011;15333;50.010;20.020;2023-04-25T05:16:16;40.00;;;27.67;;
28007;SDS011;15333;50.010;20.020;2023-04-25T05:19:30;42.38;;;29.63;;
28007;SDS011;15333;50.010;20.020;2023-04-25T05:23:06;46.42;;;30.20;;
28007;SDS011;15333;50.010;20.020;2023-04-25T05:26:26;36.30;;;24.53;;
28007;SDS011;15333;50.010;20.020;2023-04-25T05:29:49;40.25;;;26.48;;
28007;SDS011;15333;50.010;20.020;2023-04-25T05:33:13;39.20;;;26.48;;
28007;SDS011;15333;50.010;20.020;2023-04-25T05:36:15;43.38;;;26.85;;
28007;SDS011;15333;50.010;20.020;2023-04-25T05:39:16;31.25;;;21.52;;
28007;SDS011;15333;50.010;20.020;2023-04-25T05:42:36;32.90;;;22.77;;
28007;SDS011;15333;50.010;20.020;2023-04-25T05:45:58;24.58;;;14.80;;
28007;SDS011;15333;50.010;20.020;2023-04-25T05:49:20;24.05;;;14.05;;
28007;SDS011;15333;50.010;20.020;2023-04-25T05:52:32;22.27;;;14.40;;
28007;SDS011;15333;50.010;20.020;2023-04-25T05:55:42;21.02;;;11.50;;
28007;SDS011;15333;50.010;20.020;2023-04-25T05:59:01;20.65;;;12.50;;
28007;SDS011;15333;50.010;20.020;2023-04-25T06:02:01;19.30;;;11.18;;
28007;SDS011;15333;50.010;20.020;2023-04-25T06:05:06;15.55;;;9.45;;
28007;SDS011;15333;50.010;20.020;2023-04-25T06:08:08;19.45;;;9.63;;
28007;SDS011;15333;50.010;20.020;2023-04-25T06:11:09;16.73;;;10.10;;
28007;SDS011;15333;50.010;20.020;2023-04-25T06:14:10;17.00;;;9.65;;
28007;SDS011;15333;50.010;20.020;2023-04-25T06:17:16;13.98;;;9.48;;
28007;SDS011;15333;50.010;20.020;2023-04-25T06:20:17;15.27;;;8.48;;
28007;SDS011;15333;50.010;20.020;2023-04-25T06:23:18;16.98;;;8.05;;
28007;SDS011;15333;50.010;20.020;2023-04-25T06:26:25;12.82;;;8.30;;
28007;SDS011;15333;50.010;20.020;2023-04-25T06:29:27;17.80;;;9.05;;
28007;SDS011;15333;50.010;20.020;2023-04-25T06:32:27;15.90;;;9.95;;
28007;SDS011;15333;50.010;20.020;2023-04-25T06:35:32;14.70;;;8.82;;
28007;SDS011;15333;50.010;20.020;2023-04-25T06:38:33;17.98;;;10.63;;
28007;SDS011;15333;50.010;20.020;2023-04-25T06:41:36;16.60;;;9.32;;
28007;SDS011;15333;50.010;20.020;2023-04-25T06:44:41;17.60;;;10.48;;
28007;SDS011;15333;50.010;20.020;2023-04-25T06:47:43;15.32;;;9.35;;
28007;SDS011;15333;50.010;20.020;2023-04-25T06:50:44;16.10;;;9.73;;
28007;SDS011;15333;50.010;20.020;2023-04-25T07:30:41;12.20;;;7.82;;
28007;SDS011;15333;50.010;20.020;2023-04-25T07:33:42;13.68;;;8.50;;
28007;SDS011;15333;50.010;20.020;2023-04-25T07:36:43;12.93;;;8.80;;
28007;SDS011;15333;50.010;20.020;2023-04-25T07:39:44;9.50;;;7.50;;
28007;SDS011;15333;50.010;20.020;2023-04-25T07:42:48;12.50;;;8.73;;
28007;SDS011;15333;50.010;20.020;2023-04-25T07:45:54;12.88;;;7.53;;
28007;SDS011;15333;50.010;20.020;2023-04-25T07:48:55;12.52;;;7.45;;
28007;SDS011;15333;50.010;20.020;2023-04-25T07:51:57;11.25;;;7.43;;
28007;SDS011;15333;50.010;20.020;2023-04-25T07:54:58;7.55;;;6.50;;
28007;SDS011;15333;50.010;20.020;2023-04-25T07:58:07;8.60;;;5.07;;
28007;SDS011;15333;50.010;20.020;2023-04-25T08:01:11;7.03;;;4.82;;
28007;SDS011;15333;50.010;20.020;2023-04-25T08:04:21;9.70;;;5.40;;
28007;SDS011;15333;50.010;20.020;2023-04-25T08:07:28;7.72;;;4.90;;
28007;SDS011;15333;50.010;20.020;2023-04-25T08:10:32;6.47;;;4.72;;
28007;SDS011;15333;50.010;20.020;2023-04-25T08:13:33;7.05;;;5.20;;
28007;SDS011;15333;50.010;20.020;2023-04-25T08:16:34;6.05;;;5.30;;
28007;SDS011;15333;50.010;20.020;2023-04-25T08:19:37;9.85;;;4.75;;
28007;SDS011;15333;50.010;20.020;2023-04-25T08:22:38;7.75;;;5.22;;
28007;SDS011;15333;50.010;20.020;2023-04-25T08:25:54;9.57;;;5.63;;
28007;SDS011;15333;50.010;20.020;2023-04-25T08:29:00;6.10;;;4.80;;
28007;SDS011;15333;50.010;20.020;2023-04-25T08:32:04;6.53;;;5.05;;
28007;SDS011;15333;50.010;20.020;2023-04-25T08:35:07;8.63;;;6.10;;
28007;SDS011;15333;50.010;20.020;2023-04-25T08:38:09;10.02;;;7.03;;
28007;SDS011;15333;50.010;20.020;2023-04-25T08:41:10;11.20;;;7.18;;
28007;SDS011;15333;50.010;20.020;2023-04-25T08:44:12;11.75;;;7.82;;
28007;SDS011;15333;50.010;20.020;2023-04-25T08:47:15;10.35;;;8.00;;
28007;SDS011;15333;50.010;20.020;2023-04-25T08:50:22;11.05;;;7.47;;
28007;SDS011;15333;50.010;20.020;2023-04-25T08:53:25;11.48;;;8.23;;
28007;SDS011;15333;50.010;20.020;2023-04-25T08:56:28;11.93;;;7.35;;
28007;SDS011;15333;50.010;20.020;2023-04-25T08:59:30;10.60;;;8.10;;
28007;SDS011;15333;50.010;20.020;2023-04-25T09:02:32;12.73;;;7.65;;
28007;SDS011;15333;50.010;20.020;2023-04-25T09:05:33;10.95;;;7.03;;
28007;SDS011;15333;50.010;20.020;2023-04-25T09:08:36;13.13;;;8.93;;
28007;SDS011;15333;50.010;20.020;2023-04-25T09:11:37;11.88;;;8.88;;
28007;SDS011;15333;50.010;20.020;2023-04-25T09:14:42;13.02;;;8.32;;
28007;SDS011;15333;50.010;20.020;2023-04-25T09:17:58;15.60;;;9.10;;
28007;SDS011;15333;50.010;20.020;2023-04-25T09:21:06;12.32;;;8.65;;
28007;SDS011;15333;50.010;20.020;2023-04-25T09:24:09;11.68;;;9.48;;
28007;SDS011;15333;50.010;20.020;2023-04-25T09:27:17;17.23;;;8.95;;
28007;SDS011;15333;50.010;20.020;2023-04-25T09:30:28;12.77;;;8.90;;
28007;SDS011;15333;50.010;20.020;2023-04-25T09:33:40;8.18;;;6.90;;
28007;SDS011;15333;50.010;20.020;2023-04-25T09:36:42;8.77;;;6.55;;
28007;SDS011;15333;50.010;20.020;2023-04-25T09:40:04;9.03;;;6.87;;
28007;SDS011;15333;50.010;20.020;2023-04-25T09:43:10;9.90;;;7.03;;
28007;SDS011;15333;50.010;20.020;2023-04-25T09:46:21;13.10;;;7.57;;
28007;SDS011;15333;50.010;20.020;2023-04-25T09:49:28;11.57;;;7.78;;
28007;SDS011;15333;50.010;20.020;2023-04-25T09:52:44;11.90;;;7.93;;
28007;SDS011;15333;50.010;20.020;2023-04-25T09:55:59;14.63;;;9.82;;
28007;SDS011;15333;50.010;20.020;2023-04-25T09:59:01;11.95;;;8.70;;
28007;SDS011;15333;50.010;20.020;2023-04-25T10:02:03;12.30;;;8.73;;
28007;SDS011;15333;50.010;20.020;2023-04-25T10:05:10;12.65;;;8.95;;
28007;SDS011;15333;50.010;20.020;2023-04-25T10:08:14;15.82;;;9.68;;
28007;SDS011;15333;50.010;20.020;2023-04-25T10:11:17;14.43;;;9.27;;
28007;SDS011;15333;50.010;20.020;2023-04-25T10:14:18;11.38;;;8.93;;
28007;SDS011;15333;50.010;20.020;2023-04-25T10:17:20;12.52;;;8.85;;
28007;SDS011;15333;50.010;20.020;2023-04-25T10:20:21;14.80;;;7.57;;
28007;SDS011;15333;50.010;20.020;2023-04-25T10:23:23;10.35;;;7.65;;
28007;SDS011;15333;50.010;20.020;2023-04-25T10:26:24;12.05;;;8.00;;
28007;SDS011;15333;50.010;20.020;2023-04-25T10:29:26;9.48;;;6.90;;
28007;SDS011;15333;50.010;20.020;2023-04-25T10:32:27;12.02;;;7.82;;
28007;SDS011;15333;50.010;20.020;2023-04-25T10:35:29;7.50;;;6.50;;
28007;SDS011;15333;50.010;20.020;2023-04-25T10:38:34;9.82;;;7.35;;
28007;SDS011;15333;50.010;20.020;2023-04-25T10:41:46;9.32;;;5.53;;
28007;SDS011;15333;50.010;20.020;2023-04-25T10:45:00;11.27;;;6.00;;
28007;SDS011;15333;50.010;20.020;2023-04-25T10:48:04;7.63;;;5.03;;
28007;SDS011;15333;50.010;20.020;2023-04-25T10:51:32;9.25;;;5.22;;
28007;SDS011;15333;50.010;20.020;2023-04-25T10:54:34;4.97;;;4.47;;
28007;SDS011;15333;50.010;20.020;2023-04-25T11:00:43;6.10;;;5.00;;
28007;SDS011;15333;50.010;20.020;2023-04-25T11:03:44;7.78;;;5.18;;
28007;SDS011;15333;50.010;20.020;2023-04-25T11:10:06;6.65;;;5.28;;
28007;SDS011;15333;50.010;20.020;2023-04-25T11:13:08;7.63;;;5.55;;
28007;SDS011;15333;50.010;20.020;2023-04-25T11:16:09;8.38;;;6.07;;
28007;SDS011;15333;50.010;20.020;2023-04-25T11:19:10;9.82;;;6.15;;
28007;SDS011;15333;50.010;20.020;2023-04-25T11:22:11;13.27;;;9.77;;
28007;SDS011;15333;50.010;20.020;2023-04-25T11:25:14;7.05;;;5.35;;
28007;SDS011;15333;50.010;20.020;2023-04-25T11:28:20;9.38;;;5.43;;
28007;SDS011;15333;50.010;20.020;2023-04-25T11:31:25;7.50;;;5.22;;
28007;SDS011;15333;50.010;20.020;2023-04-25T11:34:29;7.45;;;5.75;;
28007;SDS011;15333;50.010;20.020;2023-04-25T11:37:32;5.78;;;5.13;;
28007;SDS011;15333;50.010;20.020;2023-04-25T11:40:37;10.73;;;7.00;;
28007;SDS011;15333;50.010;20.020;2023-04-25T11:43:38;7.25;;;5.15;;
28007;SDS011;15333;50.010;20.020;2023-04-25T11:46:39;8.13;;;5.88;;
28007;SDS011;15333;50.010;20.020;2023-04-25T11:49:40;8.35;;;6.40;;
28007;SDS011;15333;50.010;20.020;2023-04-25T11:52:41;10.02;;;6.43;;
28007;SDS011;15333;50.010;20.020;2023-04-25T11:55:44;11.10;;;6.65;;
28007;SDS011;15333;50.010;20.020;2023-04-25T12:01:59;8.80;;;7.15;;
28007;SDS011;15333;50.010;20.020;2023-04-25T12:05:02;9.32;;;7.13;;
28007;SDS011;15333;50.010;20.020;2023-04-25T12:08:10;10.48;;;7.10;;
28007;SDS011;15333;50.010;20.020;2023-04-25T12:11:21;12.10;;;7.13;;
28007;SDS011;15333;50.010;20.020;2023-04-25T12:14:23;10.07;;;7.55;;
28007;SDS011;15333;50.010;20.020;2023-04-25T12:17:30;16.10;;;9.20;;
28007;SDS011;15333;50.010;20.020;2023-04-25T12:20:31;9.32;;;7.53;;
28007;SDS011;15333;50.010;20.020;2023-04-25T12:23:32;12.80;;;7.75;;
28007;SDS011;15333;50.010;20.020;2023-04-25T12:30:00;11.82;;;8.23;;
28007;SDS011;15333;50.010;20.020;2023-04-25T12:33:02;13.70;;;9.48;;
28007;SDS011;15333;50.010;20.020;2023-04-25T12:36:03;12.90;;;9.25;;
28007;SDS011;15333;50.010;20.020;2023-04-25T12:39:14;12.48;;;7.85;;
28007;SDS011;15333;50.010;20.020;2023-04-25T12:42:19;8.85;;;6.80;;
28007;SDS011;15333;50.010;20.020;2023-04-25T12:45:20;10.23;;;6.07;;
28007;SDS011;15333;50.010;20.020;2023-04-25T12:48:22;9.88;;;7.75;;
28007;SDS011;15333;50.010;20.020;2023-04-25T12:51:23;10.57;;;7.30;;
28007;SDS011;15333;50.010;20.020;2023-04-25T12:54:25;8.30;;;6.80;;
28007;SDS011;15333;50.010;20.020;2023-04-25T12:57:26;7.88;;;6.00;;
28007;SDS011;15333;50.010;20.020;2023-04-25T13:00:27;10.65;;;6.20;;
28007;SDS011;15333;50.010;20.020;2023-04-25T13:03:28;12.60;;;7.00;;
28007;SDS011;15333;50.010;20.020;2023-04-25T13:06:29;9.98;;;7.50;;
28007;SDS011;15333;50.010;20.020;2023-04-25T13:09:32;12.40;;;8.07;;
28007;SDS011;15333;50.010;20.020;2023-04-25T13:12:33;12.15;;;8.38;;
28007;SDS011;15333;50.010;20.020;2023-04-25T13:15:34;13.70;;;10.52;;
28007;SDS011;15333;50.010;20.020;2023-04-25T13:18:35;12.60;;;8.20;;
28007;SDS011;15333;50.010;20.020;2023-04-25T13:21:36;11.07;;;7.35;;
28007;SDS011;15333;50.010;20.020;2023-04-25T13:24:37;8.68;;;6.57;;
28007;SDS011;15333;50.010;20.020;2023-04-25T13:27:38;11.85;;;7.80;;
28007;SDS011;15333;50.010;20.020;2023-04-25T13:30:41;8.57;;;5.50;;
28007;SDS011;15333;50.010;20.020;2023-04-25T13:33:42;7.90;;;5.63;;
28007;SDS011;15333;50.010;20.020;2023-04-25T13:36:44;9.35;;;6.63;;
28007;SDS011;15333;50.010;20.020;2023-04-25T13:39:48;11.18;;;7.32;;
28007;SDS011;15333;50.010;20.020;2023-04-25T13:42:49;10.32;;;6.88;;
28007;SDS011;15333;50.010;20.020;2023-04-25T13:45:51;9.90;;;7.55;;
28007;SDS011;15333;50.010;20.020;2023-04-25T13:48:52;11.23;;;6.75;;
28007;SDS011;15333;50.010;20.020;2023-04-25T13:51:53;10.85;;;7.20;;
28007;SDS011;15333;50.010;20.020;2023-04-25T13:54:54;8.60;;;6.57;;
28007;SDS011;15333;50.010;20.020;2023-04-25T13:57:55;10.57;;;6.78;;
28007;SDS011;15333;50.010;20.020;2023-04-25T14:00:56;11.20;;;8.02;;
28007;SDS011;15333;50.010;20.020;2023-04-25T14:03:57;12.23;;;7.55;;
28007;SDS011;15333;50.010;20.020;2023-04-25T14:06:57;10.05;;;7.38;;
28007;SDS011;15333;50.010;20.020;2023-04-25T14:09:58;11.48;;;7.57;;
28007;SDS011;15333;50.010;20.020;2023-04-25T14:12:59;13.05;;;7.85;;
28007;SDS011;15333;50.010;20.020;2023-04-25T14:16:01;18.15;;;7.82;;
28007;SDS011;15333;50.010;20.020;2023-04-25T14:19:02;12.45;;;7.78;;
28007;SDS011;15333;50.010;20.020;2023-04-25T14:22:03;12.07;;;8.13;;
28007;SDS011;15333;50.010;20.020;2023-04-25T14:25:04;11.88;;;8.77;;
28007;SDS011;15333;50.010;20.020;2023-04-25T14:28:08;17.48;;;9.73;;
28007;SDS011;15333;50.010;20.020;2023-04-25T14:31:09;12.80;;;9.52;;
28007;SDS011;15333;50.010;20.020;2023-04-25T14:34:11;15.48;;;10.20;;
28007;SDS011;15333;50.010;20.020;2023-04-25T14:37:11;14.85;;;10.63;;
28007;SDS011;15333;50.010;20.020;2023-04-25T14:40:13;16.90;;;9.40;;
28007;SDS011;15333;50.010;20.020;2023-04-25T14:43:15;12.02;;;7.43;;
28007;SDS011;15333;50.010;20.020;2023-04-25T14:46:16;11.93;;;9.50;;
28007;SDS011;15333;50.010;20.020;2023-04-25T14:49:17;16.45;;;9.60;;
28007;SDS011;15333;50.010;20.020;2023-04-25T14:52:18;15.40;;;9.23;;
28007;SDS011;15333;50.010;20.020;2023-04-25T14:55:19;12.43;;;8.35;;
28007;SDS011;15333;50.010;20.020;2023-04-25T14:58:20;12.30;;;6.95;;
28007;SDS011;15333;50.010;20.020;2023-04-25T15:01:21;10.82;;;6.88;;
28007;SDS011;15333;50.010;20.020;2023-04-25T15:04:23;6.75;;;4.88;;
28007;SDS011;15333;50.010;20.020;2023-04-25T15:07:23;6.38;;;4.40;;
28007;SDS011;15333;50.010;20.020;2023-04-25T15:10:25;7.43;;;4.68;;
28007;SDS011;15333;50.010;20.020;2023-04-25T15:13:26;6.35;;;3.90;;
28007;SDS011;15333;50.010;20.020;2023-04-25T15:16:27;6.65;;;3.60;;
28007;SDS011;15333;50.010;20.020;2023-04-25T15:19:28;6.07;;;4.10;;
28007;SDS011;15333;50.010;20.020;2023-04-25T15:22:29;8.52;;;3.90;;
28007;SDS011;15333;50.010;20.020;2023-04-25T15:25:30;9.10;;;4.25;;
28007;SDS011;15333;50.010;20.020;2023-04-25T15:28:31;6.78;;;3.75;;
28007;SDS011;15333;50.010;20.020;2023-04-25T15:31:33;6.15;;;4.22;;
28007;SDS011;15333;50.010;20.020;2023-04-25T15:34:34;10.13;;;5.05;;
28007;SDS011;15333;50.010;20.020;2023-04-25T15:37:35;7.68;;;4.43;;
28007;SDS011;15333;50.010;20.020;2023-04-25T15:40:37;7.70;;;4.65;;
28007;SDS011;15333;50.010;20.020;2023-04-25T15:43:38;6.72;;;4.03;;
28007;SDS011;15333;50.010;20.020;2023-04-25T15:46:40;6.72;;;4.20;;
28007;SDS011;15333;50.010;20.020;2023-04-25T15:49:40;7.78;;;4.40;;
28007;SDS011;15333;50.010;20.020;2023-04-25T15:52:42;9.05;;;4.32;;
28007;SDS011;15333;50.010;20.020;2023-04-25T15:55:43;8.07;;;4.60;;
28007;SDS011;15333;50.010;20.020;2023-04-25T15:58:44;5.78;;;4.10;;
28007;SDS011;15333;50.010;20.020;2023-04-25T16:01:45;9.90;;;4.90;;
28007;SDS011;15333;50.010;20.020;2023-04-25T16:04:46;10.13;;;5.38;;
28007;SDS011;15333;50.010;20.020;2023-04-25T16:07:46;5.93;;;4.88;;
28007;SDS011;15333;50.010;20.020;2023-04-25T16:10:48;7.90;;;5.22;;
28007;SDS011;15333;50.010;20.020;2023-04-25T16:13:49;11.27;;;5.72;;
28007;SDS011;15333;50.010;20.020;2023-04-25T16:16:50;8.18;;;5.50;;
28007;SDS011;15333;50.010;20.020;2023-04-25T16:19:51;12.05;;;4.80;;
28007;SDS011;15333;50.010;20.020;2023-04-25T16:22:52;7.57;;;5.13;;
28007;SDS011;15333;50.010;20.020;2023-04-25T16:25:53;9.15;;;5.50;;
28007;SDS011;15333;50.010;20.020;2023-04-25T16:28:54;11.48;;;5.78;;
28007;SDS011;15333;50.010;20.020;2023-04-25T16:31:55;9.40;;;5.30;;
28007;SDS011;15333;50.010;20.020;2023-04-25T16:34:56;11.07;;;5.72;;
28007;SDS011;15333;50.010;20.020;2023-04-25T16:37:57;16.65;;;5.30;;
28007;SDS011;15333;50.010;20.020;2023-04-25T16:40:58;10.38;;;5.50;;
28007;SDS011;15333;50.010;20.020;2023-04-25T16:43:59;9.38;;;5.80;;
28007;SDS011;15333;50.010;20.020;2023-04-25T16:47:00;10.98;;;5.72;;
28007;SDS011;15333;50.010;20.020;2023-04-25T16:50:01;11.95;;;5.20;;
28007;SDS011;15333;50.010;20.020;2023-04-25T16:53:03;11.93;;;5.93;;
28007;SDS011;15333;50.010;20.020;2023-04-25T16:56:03;11.20;;;5.68;;
28007;SDS011;15333;50.010;20.020;2023-04-25T16:59:05;11.38;;;5.60;;
28007;SDS011;15333;50.010;20.020;2023-04-25T17:02:09;12.18;;;5.97;;
28007;SDS011;15333;50.010;20.020;2023-04-25T17:05:12;10.43;;;6.43;;
28007;SDS011;15333;50.010;20.020;2023-04-25T17:08:13;12.50;;;6.28;;
28007;SDS011;15333;50.010;20.020;2023-04-25T17:11:14;9.73;;;5.97;;
28007;SDS011;15333;50.010;20.020;2023-04-25T17:14:14;14.98;;;6.45;;
28007;SDS011;15333;50.010;20.020;2023-04-25T17:17:16;9.95;;;6.22;;
28007;SDS011;15333;50.010;20.020;2023-04-25T17:20:18;10.93;;;6.97;;
28007;SDS011;15333;50.010;20.020;2023-04-25T17:23:19;10.68;;;6.13;;
28007;SDS011;15333;50.010;20.020;2023-04-25T17:26:19;8.88;;;6.70;;
28007;SDS011;15333;50.010;20.020;2023-04-25T17:29:20;11.00;;;6.35;;
28007;SDS011;15333;50.010;20.020;2023-04-25T17:32:23;12.07;;;6.93;;
28007;SDS011;15333;50.010;20.020;2023-04-25T17:35:24;12.80;;;6.88;;
28007;SDS011;15333;50.010;20.020;2023-04-25T17:38:25;12.55;;;6.22;;
28007;SDS011;15333;50.010;20.020;2023-04-25T17:41:27;10.23;;;6.75;;
28007;SDS011;15333;50.010;20.020;2023-04-25T17:44:28;10.40;;;6.70;;
28007;SDS011;15333;50.010;20.020;2023-04-25T17:47:29;20.70;;;7.55;;
28007;SDS011;15333;50.010;20.020;2023-04-25T17:50:30;14.70;;;6.90;;
28007;SDS011;15333;50.010;20.020;2023-04-25T17:53:31;17.23;;;8.60;;
28007;SDS011;15333;50.010;20.020;2023-04-25T17:56:34;13.68;;;7.63;;
28007;SDS011;15333;50.010;20.020;2023-04-25T17:59:37;12.88;;;7.38;;
28007;SDS011;15333;50.010;20.020;2023-04-25T18:02:38;15.98;;;7.82;;
28007;SDS011;15333;50.010;20.020;2023-04-25T18:05:39;13.48;;;7.75;;
28007;SDS011;15333;50.010;20.020;2023-04-25T18:08:40;12.80;;;8.13;;
28007;SDS011;15333;50.010;20.020;2023-04-25T18:11:42;12.30;;;7.65;;
28007;SDS011;15333;50.010;20.020;2023-04-25T18:14:44;13.95;;;6.82;;
28007;SDS011;15333;50.010;20.020;2023-04-25T18:17:45;12.88;;;7.32;;
28007;SDS011;15333;50.010;20.020;2023-04-25T18:20:46;12.93;;;7.40;;
28007;SDS011;15333;50.010;20.020;2023-04-25T18:23:48;12.43;;;7.30;;
28007;SDS011;15333;50.010;20.020;2023-04-25T18:26:49;14.00;;;7.53;;
28007;SDS011;15333;50.010;20.020;2023-04-25T18:29:50;12.18;;;7.85;;
28007;SDS011;15333;50.010;20.020;2023-04-25T18:32:51;14.60;;;8.30;;
28007;SDS011;15333;50.010;20.020;2023-04-25T18:35:52;11.65;;;7.65;;
28007;SDS011;15333;50.010;20.020;2023-04-25T18:38:54;14.10;;;7.70;;
28007;SDS011;15333;50.010;20.020;2023-04-25T18:41:58;14.27;;;7.78;;
28007;SDS011;15333;50.010;20.020;2023-04-25T18:44:59;17.63;;;8.00;;